Time;durP1;ratioP1;P1;durP2;ratioP2;P2;SDS_P1;SDS_P2;PMS_P1;PMS_P2;Temp;Humidity;BMP_temperature;BMP_pressure;BME280_temperature;BME280_humidity;BME280_pressure;Samples;Min_cycle;Max_cycle;Signal;HPM_P1;HPM_P2
2022/04/02 00:01:17;;;;;;;4.85;2.05;;;;;;;;;;5024897;28;20049;-78
2022/04/02 00:03:45;;;;;;;4.40;2.38;;;;;;;;;;5010662;28;20059;-77
2022/04/02 00:06:13;;;;;;;9.52;2.85;;;;;;;;;;5027686;28;20131;-77
2022/04/02 00:08:42;;;;;;;5.50;2.35;;;;;;;;;;5027883;28;20055;-78
2022/04/02 00:11:12;;;;;;;6.95;2.22;;;;;;;;;;5009615;28;20052;-79
2022/04/02 00:13:40;;;;;;;3.13;1.90;;;;;;;;;;5008060;28;20088;-78
2022/04/02 00:16:09;;;;;;;7.07;2.55;;;;;;;;;;5009602;28;20557;-78
2022/04/02 00:18:39;;;;;;;18.58;2.90;;;;;;;;;;5001971;28;20045;-78
2022/04/02 00:21:06;;;;;;;7.68;2.47;;;;;;;;;;5016062;28;20283;-78
2022/04/02 00:23:39;;;;;;;8.57;2.58;;;;;;;;;;5019403;28;20131;-78
2022/04/02 00:26:08;;;;;;;7.00;2.25;;;;;;;;;;5007963;28;20054;-78
2022/04/02 00:28:36;;;;;;;6.95;2.80;;;;;;;;;;5003719;28;20087;-74
2022/04/02 00:34:12;;;;;;;6.93;2.47;;;;;;;;;;5021247;28;20049;-75
2022/04/02 00:36:39;;;;;;;4.18;2.33;;;;;;;;;;5021280;28;20132;-74
2022/04/02 00:39:07;;;;;;;5.13;2.30;;;;;;;;;;5024739;28;20136;-74
2022/04/02 00:41:34;;;;;;;16.00;2.75;;;;;;;;;;5020359;28;20057;-74
2022/04/02 00:44:14;;;;;;;6.10;2.20;;;;;;;;;;5023537;28;20842;-74
2022/04/02 00:46:42;;;;;;;5.47;2.80;;;;;;;;;;5021377;28;20388;-74
2022/04/02 00:49:11;;;;;;;8.20;3.35;;;;;;;;;;5032113;28;20136;-74
2022/04/02 00:51:42;;;;;;;5.38;2.65;;;;;;;;;;5011514;28;20426;-74
2022/04/02 00:54:12;;;;;;;11.13;2.63;;;;;;;;;;5034101;28;20733;-74
2022/04/02 00:56:40;;;;;;;6.22;2.58;;;;;;;;;;5021915;28;20148;-74
2022/04/02 00:59:08;;;;;;;7.03;2.88;;;;;;;;;;5017217;28;20536;-74
2022/04/02 01:01:35;;;;;;;7.15;2.72;;;;;;;;;;5020529;28;20060;-74
2022/04/02 01:04:03;;;;;;;6.03;3.03;;;;;;;;;;5022858;28;20055;-74
2022/04/02 01:06:31;;;;;;;6.70;2.78;;;;;;;;;;5021194;28;20711;-74
2022/04/02 01:09:00;;;;;;;5.03;2.65;;;;;;;;;;5022859;28;20080;-74
2022/04/02 01:11:37;;;;;;;7.75;2.53;;;;;;;;;;5010340;28;20123;-74
2022/04/02 01:14:04;;;;;;;5.95;2.88;;;;;;;;;;5023893;28;20752;-74
2022/04/02 01:16:33;;;;;;;6.53;2.45;;;;;;;;;;5021714;28;20132;-74
2022/04/02 01:19:04;;;;;;;9.25;2.90;;;;;;;;;;5019605;28;20049;-74
2022/04/02 01:21:31;;;;;;;13.27;2.72;;;;;;;;;;5233040;23;20052;31
2022/04/02 01:23:59;;;;;;;10.20;3.20;;;;;;;;;;5022857;28;20148;-77
2022/04/02 01:26:27;;;;;;;10.23;3.15;;;;;;;;;;5021740;28;20060;-78
2022/04/02 01:28:56;;;;;;;8.32;2.58;;;;;;;;;;5028464;28;20049;-78
2022/04/02 01:31:24;;;;;;;9.32;2.67;;;;;;;;;;5022895;28;20119;-77
2022/04/02 01:33:53;;;;;;;6.30;2.85;;;;;;;;;;5022606;28;20689;-78
2022/04/02 01:39:51;;;;;;;7.53;2.42;;;;;;;;;;5038935;23;20047;-78
2022/04/02 01:42:21;;;;;;;8.57;2.53;;;;;;;;;;5042525;28;20541;-78
2022/04/02 01:44:51;;;;;;;5.53;2.92;;;;;;;;;;5040954;28;20192;-78
2022/04/02 01:47:19;;;;;;;11.10;2.90;;;;;;;;;;5042619;28;20077;-78
2022/04/02 01:49:48;;;;;;;7.22;2.90;;;;;;;;;;5042598;28;20132;-78
2022/04/02 01:52:20;;;;;;;6.95;3.05;;;;;;;;;;5044085;28;20048;-77
2022/04/02 01:54:47;;;;;;;8.60;2.38;;;;;;;;;;5043975;28;20666;-78
2022/04/02 01:57:17;;;;;;;12.02;2.85;;;;;;;;;;5043830;28;20069;-78
2022/04/02 01:59:49;;;;;;;5.20;2.50;;;;;;;;;;5041317;28;20053;-77
2022/04/02 02:02:22;;;;;;;4.88;2.90;;;;;;;;;;5037131;28;20067;-78
2022/04/02 02:04:52;;;;;;;5.18;2.28;;;;;;;;;;5040841;28;20128;-78
2022/04/02 02:07:21;;;;;;;6.78;3.00;;;;;;;;;;5025324;28;20049;-78
2022/04/02 02:09:48;;;;;;;6.25;3.00;;;;;;;;;;5030093;28;20065;-78
2022/04/02 02:12:15;;;;;;;5.22;2.75;;;;;;;;;;5042434;28;20408;-78
2022/04/02 02:14:42;;;;;;;7.85;2.97;;;;;;;;;;5041558;28;20794;-78
2022/04/02 02:17:10;;;;;;;8.82;2.90;;;;;;;;;;5030810;28;20060;-78
2022/04/02 02:19:39;;;;;;;11.23;3.08;;;;;;;;;;5040821;28;20069;-78
2022/04/02 02:22:06;;;;;;;10.02;3.00;;;;;;;;;;5041427;28;20053;-78
2022/04/02 02:24:34;;;;;;;5.68;2.95;;;;;;;;;;5043278;28;20049;-78
2022/04/02 02:27:02;;;;;;;4.32;2.72;;;;;;;;;;5029549;28;20053;-79
2022/04/02 02:29:31;;;;;;;9.25;2.65;;;;;;;;;;5039375;28;20059;-78
2022/04/02 02:31:59;;;;;;;6.20;2.63;;;;;;;;;;5044227;28;20049;-78
2022/04/02 02:37:14;;;;;;;6.53;2.40;;;;;;;;;;5037767;28;20049;-78
2022/04/02 02:39:42;;;;;;;6.93;3.35;;;;;;;;;;5032311;28;20084;-78
2022/04/02 02:42:11;;;;;;;4.38;2.60;;;;;;;;;;5042081;28;20045;-78
2022/04/02 02:44:38;;;;;;;4.50;2.38;;;;;;;;;;5038529;28;20125;-78
2022/04/02 02:47:06;;;;;;;12.80;3.65;;;;;;;;;;5046444;28;20506;-78
2022/04/02 02:49:34;;;;;;;10.65;2.80;;;;;;;;;;5050951;23;20133;-74
2022/04/02 02:52:01;;;;;;;5.18;2.65;;;;;;;;;;5018859;28;20077;-74
2022/04/02 02:54:28;;;;;;;9.63;2.78;;;;;;;;;;5018801;28;20061;-75
2022/04/02 02:56:56;;;;;;;8.38;3.17;;;;;;;;;;4999729;28;20049;-74
2022/04/02 02:59:23;;;;;;;10.77;3.40;;;;;;;;;;5018893;28;20164;-74
2022/04/02 03:01:50;;;;;;;8.85;3.20;;;;;;;;;;5016506;28;20049;-74
2022/04/02 03:04:18;;;;;;;8.73;2.95;;;;;;;;;;5022663;28;20571;-74
2022/04/02 03:06:45;;;;;;;7.70;3.15;;;;;;;;;;5027673;28;20231;-74
2022/04/02 03:09:12;;;;;;;11.13;2.88;;;;;;;;;;5036699;23;20049;-77
2022/04/02 03:11:40;;;;;;;9.80;2.70;;;;;;;;;;5021636;28;20144;-77
2022/04/02 03:14:07;;;;;;;10.60;3.40;;;;;;;;;;5005597;28;20056;-77
2022/04/02 03:16:34;;;;;;;15.65;4.40;;;;;;;;;;5008969;28;20045;-77
2022/04/02 03:19:02;;;;;;;7.60;3.90;;;;;;;;;;5006278;28;20058;-77
2022/04/02 03:21:30;;;;;;;9.52;3.55;;;;;;;;;;5006599;28;20041;-77
2022/04/02 03:23:58;;;;;;;12.30;3.78;;;;;;;;;;5007526;28;20149;-77
2022/04/02 03:26:26;;;;;;;9.57;3.42;;;;;;;;;;5013307;28;20107;-77
2022/04/02 03:28:53;;;;;;;12.02;3.65;;;;;;;;;;4996329;28;20545;-77
2022/04/02 03:31:22;;;;;;;8.30;3.30;;;;;;;;;;5010995;28;20144;-77
2022/04/02 03:33:50;;;;;;;5.85;3.15;;;;;;;;;;5009050;28;20073;-77
2022/04/02 03:36:18;;;;;;;13.35;3.10;;;;;;;;;;5005636;28;20066;-77
2022/04/02 03:41:32;;;;;;;8.02;3.88;;;;;;;;;;5057849;28;20051;-74
2022/04/02 03:43:59;;;;;;;10.52;4.20;;;;;;;;;;5045217;28;20155;-74
2022/04/02 03:49:13;;;;;;;6.75;3.35;;;;;;;;;;5046961;28;20084;-74
2022/04/02 03:51:41;;;;;;;12.50;3.60;;;;;;;;;;5061411;28;20049;-74
2022/04/02 03:54:08;;;;;;;7.35;3.80;;;;;;;;;;5042128;28;20470;-74
2022/04/02 03:56:35;;;;;;;7.80;3.25;;;;;;;;;;5063999;28;20156;-74
2022/04/02 03:59:03;;;;;;;9.93;4.03;;;;;;;;;;5063108;28;20140;-74
2022/04/02 04:01:30;;;;;;;6.75;3.13;;;;;;;;;;5041823;28;20127;-74
2022/04/02 04:07:02;;;;;;;14.32;3.25;;;;;;;;;;5032150;28;20452;-75
2022/04/02 04:09:29;;;;;;;7.20;3.10;;;;;;;;;;5040526;28;20041;-74
2022/04/02 04:11:57;;;;;;;10.50;3.13;;;;;;;;;;5007972;28;20796;-75
2022/04/02 04:14:24;;;;;;;9.25;3.47;;;;;;;;;;5025354;28;20132;-74
2022/04/02 04:16:52;;;;;;;9.48;3.42;;;;;;;;;;5036471;28;20451;-74
2022/04/02 04:19:20;;;;;;;5.78;3.13;;;;;;;;;;5009431;28;20128;-74
2022/04/02 04:21:47;;;;;;;14.82;3.33;;;;;;;;;;5035501;28;20171;-74
2022/04/02 04:24:15;;;;;;;7.75;3.10;;;;;;;;;;5016264;28;20049;-74
2022/04/02 04:26:43;;;;;;;7.47;3.05;;;;;;;;;;5019425;28;20084;-74
2022/04/02 04:29:10;;;;;;;9.75;3.63;;;;;;;;;;5032124;28;20536;-74
2022/04/02 04:31:37;;;;;;;11.73;3.75;;;;;;;;;;5039960;28;20619;-74
2022/04/02 04:34:05;;;;;;;10.50;4.65;;;;;;;;;;5029727;28;20065;-75
2022/04/02 04:36:32;;;;;;;6.95;4.05;;;;;;;;;;5013295;28;20140;-75
2022/04/02 04:39:00;;;;;;;7.18;3.72;;;;;;;;;;5034755;28;20136;-74
2022/04/02 04:41:32;;;;;;;9.27;3.65;;;;;;;;;;5013124;28;20049;-74
2022/04/02 04:43:59;;;;;;;14.27;4.13;;;;;;;;;;5025585;28;20069;-75
2022/04/02 04:46:26;;;;;;;14.75;3.67;;;;;;;;;;5017807;28;20103;-75
2022/04/02 04:48:53;;;;;;;10.50;3.45;;;;;;;;;;5036169;28;20122;-74
2022/04/02 04:51:23;;;;;;;7.53;2.85;;;;;;;;;;5033704;28;20102;-74
2022/04/02 04:53:51;;;;;;;9.18;2.88;;;;;;;;;;5013124;28;20557;-75
2022/04/02 04:56:18;;;;;;;9.57;2.80;;;;;;;;;;5019389;28;20072;-75
2022/04/02 04:58:45;;;;;;;3.72;2.78;;;;;;;;;;5013179;28;20484;-75
2022/04/02 05:01:13;;;;;;;11.40;3.92;;;;;;;;;;5036436;28;20043;-75
2022/04/02 05:03:40;;;;;;;13.65;3.85;;;;;;;;;;5010787;28;20049;-75
2022/04/02 05:06:12;;;;;;;9.68;3.22;;;;;;;;;;5013776;28;20537;-74
2022/04/02 05:08:39;;;;;;;9.68;3.58;;;;;;;;;;5025121;28;20132;-74
2022/04/02 05:11:08;;;;;;;16.75;4.05;;;;;;;;;;5024103;28;20057;-74
2022/04/02 05:13:36;;;;;;;7.18;2.83;;;;;;;;;;5012627;28;20057;-75
2022/04/02 05:16:03;;;;;;;6.05;3.03;;;;;;;;;;5025827;28;20052;-75
2022/04/02 05:18:32;;;;;;;9.48;3.35;;;;;;;;;;5026358;28;21539;-75
2022/04/02 05:21:00;;;;;;;6.05;3.20;;;;;;;;;;5028626;28;20048;-75
2022/04/02 05:23:27;;;;;;;6.93;3.50;;;;;;;;;;5028521;28;20045;-75
2022/04/02 05:25:55;;;;;;;9.43;3.30;;;;;;;;;;5027040;28;20133;-75
2022/04/02 05:28:22;;;;;;;8.00;3.25;;;;;;;;;;5032222;28;20128;-74
2022/04/02 05:30:49;;;;;;;15.48;3.90;;;;;;;;;;5016090;28;20665;-75
2022/04/02 05:33:17;;;;;;;9.38;3.90;;;;;;;;;;5038947;28;20060;-75
2022/04/02 05:36:05;;;;;;;8.55;3.80;;;;;;;;;;5030879;28;20045;-75
2022/04/02 05:38:32;;;;;;;11.13;3.78;;;;;;;;;;5016014;28;20133;-75
2022/04/02 05:40:59;;;;;;;10.88;3.78;;;;;;;;;;5012708;28;20128;-75
2022/04/02 05:43:27;;;;;;;9.60;4.80;;;;;;;;;;5006920;28;20064;-75
2022/04/02 05:45:54;;;;;;;5.88;3.67;;;;;;;;;;5024784;28;20156;-75
2022/04/02 05:48:21;;;;;;;10.50;3.92;;;;;;;;;;5025149;28;20418;-75
2022/04/02 05:50:49;;;;;;;14.52;3.72;;;;;;;;;;5028609;28;20489;-74
2022/04/02 05:53:17;;;;;;;8.45;3.25;;;;;;;;;;5012906;28;20126;-75
2022/04/02 05:55:45;;;;;;;6.90;3.20;;;;;;;;;;5021259;28;20045;-74
2022/04/02 05:58:12;;;;;;;8.00;2.85;;;;;;;;;;5023582;28;20072;-75
2022/04/02 06:00:39;;;;;;;8.65;3.30;;;;;;;;;;5035384;28;20517;-74
2022/04/02 06:03:07;;;;;;;7.05;2.97;;;;;;;;;;5000860;28;20103;-74
2022/04/02 06:05:35;;;;;;;5.00;2.90;;;;;;;;;;5025452;28;20116;-75
2022/04/02 06:08:03;;;;;;;8.02;3.03;;;;;;;;;;5018245;28;20081;-74
2022/04/02 06:10:30;;;;;;;8.23;3.63;;;;;;;;;;5029606;28;20144;-74
2022/04/02 06:12:57;;;;;;;8.70;3.17;;;;;;;;;;5035890;28;20156;-74
2022/04/02 06:15:25;;;;;;;15.77;3.85;;;;;;;;;;5013643;28;20045;-74
2022/04/02 06:17:52;;;;;;;5.82;2.40;;;;;;;;;;5038060;28;20135;-75
2022/04/02 06:20:19;;;;;;;10.10;2.67;;;;;;;;;;5013800;28;20234;-74
2022/04/02 06:22:47;;;;;;;11.80;3.17;;;;;;;;;;5031008;28;20053;-74
2022/04/02 06:25:14;;;;;;;12.32;2.63;;;;;;;;;;5034220;28;20128;-75
2022/04/02 06:27:44;;;;;;;9.15;3.13;;;;;;;;;;5032031;28;20100;-74
2022/04/02 06:30:19;;;;;;;9.25;3.10;;;;;;;;;;5030849;28;20104;-75
2022/04/02 06:32:52;;;;;;;9.38;3.03;;;;;;;;;;5008670;28;20053;-75
2022/04/02 06:35:19;;;;;;;4.50;2.25;;;;;;;;;;5010610;28;20765;-74
2022/04/02 06:37:50;;;;;;;6.38;2.95;;;;;;;;;;5027986;28;20053;-74
2022/04/02 06:40:18;;;;;;;8.43;2.42;;;;;;;;;;5023977;28;20152;-74
2022/04/02 06:42:45;;;;;;;6.68;3.05;;;;;;;;;;5034241;28;20132;-75
2022/04/02 06:45:13;;;;;;;5.70;2.95;;;;;;;;;;5029320;28;20156;-75
2022/04/02 06:47:40;;;;;;;11.52;3.22;;;;;;;;;;5007132;28;20136;-74
2022/04/02 06:50:16;;;;;;;4.88;2.75;;;;;;;;;;5010045;28;20845;-75
2022/04/02 06:52:44;;;;;;;7.05;2.55;;;;;;;;;;5034599;28;20080;-75
2022/04/02 06:55:12;;;;;;;4.30;2.53;;;;;;;;;;5010359;28;20124;-74
2022/04/02 06:57:43;;;;;;;8.18;2.70;;;;;;;;;;5046222;28;20084;-75
2022/04/02 07:00:11;;;;;;;5.45;2.63;;;;;;;;;;5014975;28;20081;-74
2022/04/02 07:02:39;;;;;;;4.05;2.42;;;;;;;;;;5029229;28;20045;-75
2022/04/02 07:05:06;;;;;;;5.38;2.83;;;;;;;;;;5027692;28;20077;-75
2022/04/02 07:07:33;;;;;;;6.13;2.13;;;;;;;;;;5038394;28;20853;-76
2022/04/02 07:10:02;;;;;;;6.93;2.33;;;;;;;;;;5024464;28;20111;-76
2022/04/02 07:12:29;;;;;;;4.80;2.50;;;;;;;;;;5010323;28;20057;-75
2022/04/02 07:14:57;;;;;;;9.15;3.35;;;;;;;;;;5036482;28;20685;-75
2022/04/02 07:17:24;;;;;;;9.55;2.85;;;;;;;;;;5024313;28;20442;-75
2022/04/02 07:19:52;;;;;;;3.83;1.80;;;;;;;;;;5004123;28;20057;-75
2022/04/02 07:22:19;;;;;;;6.03;2.42;;;;;;;;;;4988207;28;20816;-75
2022/04/02 07:24:47;;;;;;;12.40;2.83;;;;;;;;;;4999558;28;20182;-75
2022/04/02 07:27:14;;;;;;;6.75;2.10;;;;;;;;;;5026526;28;20152;-74
2022/04/02 07:29:42;;;;;;;8.10;2.33;;;;;;;;;;5044585;28;20140;-75
2022/04/02 07:32:11;;;;;;;6.30;2.47;;;;;;;;;;4996704;28;20059;-73
2022/04/02 07:34:39;;;;;;;4.13;2.03;;;;;;;;;;5015750;28;20050;-73
2022/04/02 07:37:14;;;;;;;6.75;2.08;;;;;;;;;;5013487;28;20045;-83
2022/04/02 07:39:41;;;;;;;;;;;;;;;;;;5004392;28;20140;-82
2022/04/02 07:42:10;;;;;;;4.32;1.92;;;;;;;;;;5019733;28;20068;-82
2022/04/02 07:44:54;;;;;;;3.85;1.95;;;;;;;;;;5005367;28;20137;-80
2022/04/02 07:47:23;;;;;;;6.68;2.13;;;;;;;;;;5041504;28;20076;-82
2022/04/02 07:49:54;;;;;;;13.45;2.35;;;;;;;;;;5000187;28;20096;-78
2022/04/02 07:52:23;;;;;;;4.55;2.33;;;;;;;;;;5040698;28;20817;-79
2022/04/02 07:54:55;;;;;;;8.93;1.80;;;;;;;;;;5022798;28;20076;-78
2022/04/02 07:57:24;;;;;;;6.00;2.17;;;;;;;;;;5043873;23;20138;-76
2022/04/02 07:59:56;;;;;;;6.35;2.67;;;;;;;;;;5011578;28;20111;-76
2022/04/02 08:02:36;;;;;;;4.97;2.20;;;;;;;;;;5018368;28;20052;-74
2022/04/02 08:05:04;;;;;;;5.75;2.30;;;;;;;;;;5022148;28;20861;-76
2022/04/02 08:07:32;;;;;;;8.25;1.80;;;;;;;;;;5019284;28;20135;-73
2022/04/02 08:10:01;;;;;;;6.10;1.80;;;;;;;;;;5030383;23;20145;-76
2022/04/02 08:12:29;;;;;;;3.33;1.73;;;;;;;;;;5025311;28;20054;-77
2022/04/02 08:14:56;;;;;;;6.03;1.80;;;;;;;;;;5016665;28;20045;-77
2022/04/02 08:17:23;;;;;;;6.55;2.20;;;;;;;;;;5018234;28;20149;-79
2022/04/02 08:19:51;;;;;;;6.47;2.67;;;;;;;;;;5032363;28;20078;-77
2022/04/02 08:22:18;;;;;;;4.57;1.98;;;;;;;;;;5007698;28;20142;-77
2022/04/02 08:24:46;;;;;;;5.75;1.90;;;;;;;;;;5018057;28;20060;-79
2022/04/02 08:27:36;;;;;;;1.70;1.38;;;;;;;;;;5018385;28;20162;-76
2022/04/02 08:30:03;;;;;;;6.20;2.15;;;;;;;;;;5013971;28;20165;-75
2022/04/02 08:32:36;;;;;;;12.90;2.63;;;;;;;;;;5027526;28;20906;-75
2022/04/02 08:35:04;;;;;;;4.88;1.95;;;;;;;;;;5012045;28;20061;-76
2022/04/02 08:37:37;;;;;;;8.63;2.47;;;;;;;;;;5016851;28;20128;-74
2022/04/02 08:40:11;;;;;;;4.35;2.08;;;;;;;;;;5016673;28;20053;-76
2022/04/02 08:42:38;;;;;;;7.07;2.20;;;;;;;;;;5014414;28;20049;-75
2022/04/02 08:45:15;;;;;;;14.32;2.45;;;;;;;;;;5017186;28;20073;-74
2022/04/02 08:48:05;;;;;;;5.20;2.25;;;;;;;;;;5030933;28;20076;-76
2022/04/02 08:50:34;;;;;;;6.22;1.90;;;;;;;;;;5017045;28;20497;-78
2022/04/02 08:53:15;;;;;;;7.72;2.05;;;;;;;;;;5012644;28;20149;-77
2022/04/02 08:55:46;;;;;;;4.90;1.77;;;;;;;;;;5009896;28;20667;-78
2022/04/02 08:58:25;;;;;;;3.50;1.98;;;;;;;;;;5032256;23;20146;-75
2022/04/02 09:01:07;;;;;;;3.45;1.92;;;;;;;;;;5030849;28;20050;-73
2022/04/02 09:03:47;;;;;;;5.55;2.00;;;;;;;;;;5022633;28;21258;-75
2022/04/02 09:06:42;;;;;;;5.72;3.10;;;;;;;;;;5051964;28;20053;-76
2022/04/02 09:09:33;;;;;;;5.07;2.90;;;;;;;;;;5051535;28;20216;-75
2022/04/02 09:12:19;;;;;;;6.40;2.15;;;;;;;;;;5022638;28;21174;-75
2022/04/02 09:14:46;;;;;;;;;;;;;;;;;;5038195;28;20057;-75
2022/04/02 09:17:33;;;;;;;4.93;1.70;;;;;;;;;;5030248;28;20036;-75
2022/04/02 09:20:19;;;;;;;7.82;2.03;;;;;;;;;;5044542;28;20150;-76
2022/04/02 09:23:02;;;;;;;5.55;1.92;;;;;;;;;;5039892;28;20151;-75
2022/04/02 09:25:48;;;;;;;4.53;1.85;;;;;;;;;;5045081;28;20052;-74
2022/04/02 09:32:10;;;;;;;3.35;1.80;;;;;;;;;;5050623;22;20059;-75
2022/04/02 09:34:38;;;;;;;6.30;1.70;;;;;;;;;;5043304;28;20135;-75
2022/04/02 09:37:09;;;;;;;3.05;1.88;;;;;;;;;;5046380;28;20143;-74
2022/04/02 09:39:48;;;;;;;4.75;2.08;;;;;;;;;;5042604;28;20127;-74
2022/04/02 09:42:24;;;;;;;7.45;2.38;;;;;;;;;;5042194;28;20045;-74
2022/04/02 09:44:59;;;;;;;3.40;1.90;;;;;;;;;;5043819;28;20140;-75
2022/04/02 09:47:32;;;;;;;7.53;2.00;;;;;;;;;;5043803;28;20053;-74
2022/04/02 09:50:10;;;;;;;11.98;2.40;;;;;;;;;;5045331;28;20951;-74
2022/04/02 09:52:38;;;;;;;37.28;4.78;;;;;;;;;;5032713;22;20478;-74
2022/04/02 09:55:05;;;;;;;46.22;7.13;;;;;;;;;;4984732;28;20330;-74
2022/04/02 09:57:35;;;;;;;168.40;12.13;;;;;;;;;;4996775;28;20144;-74
2022/04/02 10:00:03;;;;;;;7.43;2.20;;;;;;;;;;4995360;28;20133;-74
2022/04/02 10:02:57;;;;;;;9.18;2.20;;;;;;;;;;4994867;28;20090;-74
2022/04/02 10:05:31;;;;;;;3.40;2.17;;;;;;;;;;4999442;28;20050;-74
2022/04/02 10:08:05;;;;;;;27.83;3.25;;;;;;;;;;4994536;28;20160;-74
2022/04/02 10:10:32;;;;;;;11.80;2.53;;;;;;;;;;4995567;28;20049;-74
2022/04/02 10:13:02;;;;;;;4.40;2.38;;;;;;;;;;4994967;28;20083;-74
2022/04/02 10:15:31;;;;;;;6.35;2.05;;;;;;;;;;4987683;28;20081;-75
2022/04/02 10:18:02;;;;;;;6.70;2.72;;;;;;;;;;4993321;28;20050;-75
2022/04/02 10:20:30;;;;;;;5.70;2.65;;;;;;;;;;4991585;28;20165;-76
2022/04/02 10:23:20;;;;;;;7.82;2.58;;;;;;;;;;4995078;28;20077;-75
2022/04/02 10:26:11;;;;;;;6.40;2.30;;;;;;;;;;4992638;28;20593;-77
2022/04/02 10:28:38;;;;;;;;;;;;;;;;;;4991595;28;20168;-75
2022/04/02 10:31:06;;;;;;;24.60;2.50;;;;;;;;;;4988106;28;20049;-75
2022/04/02 10:33:36;;;;;;;4.65;1.98;;;;;;;;;;4996109;28;20080;-74
2022/04/02 10:36:08;;;;;;;6.50;1.90;;;;;;;;;;4993069;28;20951;-74
2022/04/02 10:38:39;;;;;;;4.13;2.15;;;;;;;;;;4993689;28;20156;-74
2022/04/02 10:41:10;;;;;;;4.50;1.83;;;;;;;;;;4994576;28;20056;-74
2022/04/02 10:43:45;;;;;;;3.60;2.00;;;;;;;;;;4990389;28;20124;-73
2022/04/02 10:46:12;;;;;;;;;;;;;;;;;;4991815;28;20129;-74
2022/04/02 10:48:45;;;;;;;3.80;1.55;;;;;;;;;;4992340;28;19929;-75
2022/04/02 10:51:14;;;;;;;8.18;1.63;;;;;;;;;;4994791;28;20046;-75
2022/04/02 10:53:44;;;;;;;14.63;1.90;;;;;;;;;;4994193;28;20129;-76
2022/04/02 10:56:27;;;;;;;5.18;1.75;;;;;;;;;;4995906;28;20066;-75
2022/04/02 10:58:54;;;;;;;9.57;1.70;;;;;;;;;;4983951;28;20078;-76
2022/04/02 11:01:23;;;;;;;10.70;1.92;;;;;;;;;;4993597;28;20050;-75
2022/04/02 11:03:55;;;;;;;5.05;2.03;;;;;;;;;;4993828;28;20162;-74
2022/04/02 11:06:41;;;;;;;11.88;2.85;;;;;;;;;;4996499;28;20497;-74
2022/04/02 11:09:27;;;;;;;20.60;2.00;;;;;;;;;;4996445;28;20581;-74
2022/04/02 11:12:08;;;;;;;5.55;1.95;;;;;;;;;;4994716;28;20060;-74
2022/04/02 11:14:40;;;;;;;13.70;2.50;;;;;;;;;;4998345;28;20054;-74
2022/04/02 11:17:07;;;;;;;5.63;1.98;;;;;;;;;;4997760;28;20057;-74
2022/04/02 11:19:54;;;;;;;5.72;1.38;;;;;;;;;;4991093;28;20046;-75
2022/04/02 11:22:34;;;;;;;11.43;1.73;;;;;;;;;;4992974;28;20108;-75
2022/04/02 11:25:04;;;;;;;3.83;1.50;;;;;;;;;;4994946;28;20049;-74
2022/04/02 11:27:35;;;;;;;5.53;1.80;;;;;;;;;;5000900;28;20050;-74
2022/04/02 11:30:10;;;;;;;4.30;1.60;;;;;;;;;;4997500;28;20434;-74
2022/04/02 11:32:39;;;;;;;5.38;1.90;;;;;;;;;;4994336;28;20144;-74
2022/04/02 11:35:10;;;;;;;10.43;1.85;;;;;;;;;;4995516;28;20046;-74
2022/04/02 11:37:46;;;;;;;6.32;1.85;;;;;;;;;;4997157;28;20085;-74
2022/04/02 11:40:15;;;;;;;5.32;1.92;;;;;;;;;;4996459;28;20726;-75
2022/04/02 11:42:46;;;;;;;11.52;2.47;;;;;;;;;;4998490;28;20515;-74
2022/04/02 11:45:17;;;;;;;8.32;1.85;;;;;;;;;;4995654;28;20571;-74
2022/04/02 11:47:51;;;;;;;6.32;1.95;;;;;;;;;;4991553;28;20073;-75
2022/04/02 11:50:26;;;;;;;14.65;1.88;;;;;;;;;;4994510;28;20129;-75
2022/04/02 11:52:53;;;;;;;;;;;;;;;;;;4993917;28;20114;-73
2022/04/02 11:55:21;;;;;;;12.95;1.77;;;;;;;;;;4987452;28;19961;-74
2022/04/02 11:57:56;;;;;;;32.35;3.42;;;;;;;;;;4978345;28;20131;-75
2022/04/02 12:00:24;;;;;;;;;;;;;;;;;;4989249;28;20100;-77
2022/04/02 12:02:51;;;;;;;4.45;2.38;;;;;;;;;;4996470;28;19926;-73
2022/04/02 12:05:20;;;;;;;5.05;1.67;;;;;;;;;;4997768;28;20913;-73
2022/04/02 12:07:47;;;;;;;7.72;2.42;;;;;;;;;;4968511;28;20724;-76
2022/04/02 12:10:43;;;;;;;6.82;3.72;;;;;;;;;;4981458;28;20134;-74
2022/04/02 12:13:10;;;;;;;11.65;4.43;;;;;;;;;;4971099;28;20136;-73
2022/04/02 12:15:38;;;;;;;15.95;5.40;;;;;;;;;;4991997;28;20134;-75
2022/04/02 12:18:08;;;;;;;11.10;4.40;;;;;;;;;;4987899;28;20047;-75
2022/04/02 12:20:39;;;;;;;8.73;6.28;;;;;;;;;;4991174;28;20756;-75
2022/04/02 12:23:11;;;;;;;9.13;5.47;;;;;;;;;;4964998;28;20348;-80
2022/04/02 12:28:26;;;;;;;14.60;2.53;;;;;;;;;;4950820;28;20058;-75
2022/04/02 12:30:54;;;;;;;7.53;3.55;;;;;;;;;;4983622;28;20082;-77
2022/04/02 12:33:22;;;;;;;10.52;3.15;;;;;;;;;;4966825;28;20130;-75
2022/04/02 12:35:57;;;;;;;8.82;5.15;;;;;;;;;;4982180;28;20524;-75
2022/04/02 12:38:25;;;;;;;6.13;3.10;;;;;;;;;;4967365;28;20594;-76
2022/04/02 12:40:56;;;;;;;11.68;5.35;;;;;;;;;;4967323;28;20057;-74
2022/04/02 12:43:25;;;;;;;13.18;3.25;;;;;;;;;;4982094;28;20162;-75
2022/04/02 12:48:46;;;;;;;6.85;4.07;;;;;;;;;;4984361;28;20145;-78
2022/04/02 12:51:14;;;;;;;8.10;4.53;;;;;;;;;;4986546;28;20746;-77
2022/04/02 12:53:43;;;;;;;14.57;2.20;;;;;;;;;;4986238;28;20451;-78
2022/04/02 12:56:16;;;;;;;25.85;2.50;;;;;;;;;;4988230;28;20156;-78
2022/04/02 12:58:44;;;;;;;4.13;1.65;;;;;;;;;;4987825;28;20577;-78
2022/04/02 13:01:16;;;;;;;8.63;4.32;;;;;;;;;;4988883;28;20054;-76
2022/04/02 13:03:45;;;;;;;6.03;2.13;;;;;;;;;;4989847;28;20566;-77
2022/04/02 13:06:19;;;;;;;5.32;1.60;;;;;;;;;;4997336;28;20133;-77
2022/04/02 13:08:54;;;;;;;2.67;0.98;;;;;;;;;;4977766;28;20426;-76
2022/04/02 13:11:41;;;;;;;12.07;1.88;;;;;;;;;;4989542;28;20054;-76
2022/04/02 13:14:33;;;;;;;6.05;1.65;;;;;;;;;;4988670;28;20553;-76
2022/04/02 13:17:12;;;;;;;3.25;1.25;;;;;;;;;;4985463;28;20108;-72
2022/04/02 13:22:29;;;;;;;5.13;1.38;;;;;;;;;;4985560;28;20149;-75
2022/04/02 13:25:00;;;;;;;2.85;1.20;;;;;;;;;;4983903;28;20062;-73
2022/04/02 13:27:31;;;;;;;5.88;2.25;;;;;;;;;;4985997;28;20491;-74
2022/04/02 13:30:04;;;;;;;3.70;1.23;;;;;;;;;;4991160;28;20086;-74
2022/04/02 13:32:50;;;;;;;11.52;1.25;;;;;;;;;;4964979;28;20094;-74
2022/04/02 13:35:25;;;;;;;2.05;1.15;;;;;;;;;;4975907;28;20137;-73
2022/04/02 13:38:01;;;;;;;4.43;1.73;;;;;;;;;;4964878;28;20090;-73
2022/04/02 13:40:29;;;;;;;15.65;1.60;;;;;;;;;;4966127;28;20125;-75
2022/04/02 13:42:57;;;;;;;2.85;1.50;;;;;;;;;;4966194;28;20684;-74
2022/04/02 13:45:25;;;;;;;2.28;0.98;;;;;;;;;;4968296;28;20125;-74
2022/04/02 13:47:59;;;;;;;3.03;1.70;;;;;;;;;;4997943;28;20085;-73
2022/04/02 13:50:28;;;;;;;3.22;1.63;;;;;;;;;;5004770;28;20097;-72
2022/04/02 13:53:03;;;;;;;4.70;1.80;;;;;;;;;;5001323;28;20081;-73
2022/04/02 13:55:30;;;;;;;9.52;1.35;;;;;;;;;;5004007;28;20100;-75
2022/04/02 13:58:02;;;;;;;4.97;1.08;;;;;;;;;;4983766;28;20189;-74
2022/04/02 14:03:46;;;;;;;5.20;1.10;;;;;;;;;;5004390;28;20042;-75
2022/04/02 14:06:14;;;;;;;3.30;1.17;;;;;;;;;;5016276;28;20580;-76
2022/04/02 14:08:51;;;;;;;2.92;1.25;;;;;;;;;;5003585;28;20049;-75
2022/04/02 14:11:19;;;;;;;5.70;3.20;;;;;;;;;;5019617;28;20856;-78
2022/04/02 14:14:13;;;;;;;6.10;3.05;;;;;;;;;;5015965;28;20058;-80
2022/04/02 14:16:42;;;;;;;13.70;3.10;;;;;;;;;;5017452;28;20064;-79
2022/04/02 14:19:17;;;;;;;8.55;3.30;;;;;;;;;;5026425;28;20041;-80
2022/04/02 14:21:50;;;;;;;6.20;1.85;;;;;;;;;;5006833;28;20045;-80
2022/04/02 14:24:27;;;;;;;4.07;2.28;;;;;;;;;;5005640;28;20081;-79
2022/04/02 14:26:54;;;;;;;;;;;;;;;;;;4995104;28;20050;-78
2022/04/02 14:29:24;;;;;;;2.53;1.15;;;;;;;;;;4998160;28;19961;-79
2022/04/02 14:32:01;;;;;;;3.70;1.63;;;;;;;;;;5020976;28;20115;-78
2022/04/02 14:34:42;;;;;;;7.25;1.77;;;;;;;;;;5003803;28;20061;-78
2022/04/02 14:37:10;;;;;;;6.07;2.08;;;;;;;;;;5026532;28;20144;-77
2022/04/02 14:39:49;;;;;;;6.38;1.60;;;;;;;;;;5003470;28;20049;-77
2022/04/02 14:42:33;;;;;;;9.57;2.85;;;;;;;;;;5018355;28;20136;-77
2022/04/02 14:45:00;;;;;;;6.82;1.80;;;;;;;;;;5021454;28;20785;-77
2022/04/02 14:47:36;;;;;;;4.22;1.90;;;;;;;;;;5019384;28;20741;-79
2022/04/02 14:50:22;;;;;;;4.93;2.00;;;;;;;;;;5021317;23;20061;-77
2022/04/02 14:52:57;;;;;;;1.67;0.80;;;;;;;;;;5046827;28;20144;-78
2022/04/02 14:55:42;;;;;;;15.57;2.00;;;;;;;;;;5052858;28;20122;-77
2022/04/02 14:58:09;;;;;;;;;;;;;;;;;;5054799;28;20052;-76
2022/04/02 15:00:37;;;;;;;6.22;1.80;;;;;;;;;;5031833;28;19929;-77
2022/04/02 15:03:23;;;;;;;4.07;1.70;;;;;;;;;;5055041;28;20239;-76
2022/04/02 15:05:58;;;;;;;9.77;2.60;;;;;;;;;;5055629;28;20049;-75
2022/04/02 15:08:34;;;;;;;10.82;2.83;;;;;;;;;;5054817;28;20144;-76
2022/04/02 15:11:01;;;;;;;8.07;2.58;;;;;;;;;;5055014;28;21079;-75
2022/04/02 15:13:32;;;;;;;6.22;2.75;;;;;;;;;;5055103;28;20052;-75
2022/04/02 15:16:05;;;;;;;2.03;1.42;;;;;;;;;;5059896;28;20059;-74
2022/04/02 15:18:33;;;;;;;2.58;1.35;;;;;;;;;;5056950;28;20059;-74
2022/04/02 15:21:18;;;;;;;3.97;1.63;;;;;;;;;;5052939;28;20132;-75
2022/04/02 15:24:11;;;;;;;7.53;2.33;;;;;;;;;;5049433;28;20159;-75
2022/04/02 15:26:52;;;;;;;5.75;1.90;;;;;;;;;;5060433;28;20048;-74
2022/04/02 15:29:36;;;;;;;4.88;1.90;;;;;;;;;;5060120;28;20178;-74
2022/04/02 15:32:24;;;;;;;8.02;1.40;;;;;;;;;;5057279;28;20086;-74
2022/04/02 15:34:54;;;;;;;6.90;1.60;;;;;;;;;;5045002;28;20145;-74
2022/04/02 15:37:26;;;;;;;4.22;1.77;;;;;;;;;;5053884;28;20153;-74
2022/04/02 15:40:12;;;;;;;5.35;1.30;;;;;;;;;;5040892;28;20141;-74